MET'MAP v2.0
soon released !

Expected late october,
this new version will be
more efficient, smarter,
and hosted on a brand new
server x3 powerfull...
...and still free !


Not compatible ?
Try the mobile version !

LOG IN : | Subscribe | Disclaimer | Who is Orbifly ? |
ICAO code :

TAF - LTBA Ataturk - 04 Apr 2020 12:22 UTC - Data Source NOAA   


- Airport Elevation : 163 ft
- IATA code : IST
- No reported NOTAMs.


LTBA - Ataturk

Latest METAR recorded : 2015/08/11 07:50 LTBA 110750Z 21007KT 170V230 9999 SCT028 26/21 Q1011 NOSIG
TAF TAF LTBA
Valid from the 04 at 06:00 until the 05 at 12:00 UTC


040440Z 0406/0512 03008KT CAVOK
BECMG 0406/0409 -RA SCT010 BKN020
BECMG 0419/0422 02020G33KT
TEMPO 0420/0424 3000 RA BR BKN007 BKN016

Source NOAA


MET'MAP, your aeronautical weather chart ! - Copyright ORBIFLY December 2007

Programming & Development : Alexandra Zaïnal
Co-Developer : Marc-Olivier Méhu
Technical & hardware support : Manuel Goepfert
Concept & Financing : Baudouin d'Aumeries